KBKE/BKE METAR and TAF weather

Enter ICAO airport designator
Station Type Date Time Source
KBKE METAR 2023/01/30 10:53 UTC NOAA

KBKE 301053Z AUTO 18005KT 10SM CLR M16/M19 A3030 RMK AO2 SLP317 T11561194


Station Type Date Time Source
KBKE Decoded METAR 2023/01/30 10:53 UTC NOAA

BAKER MUNICIPAL AIRPORT, OR, United States (KBKE) 44-50N 117-49W 1024M
Jan 30, 2023 - 05:53 AM EST / 2023.01.30 1053 UTC
Wind: from the S (180 degrees) at 6 MPH (5 KT):0
Visibility: 10 mile(s):0
Sky conditions: clear
Temperature: 3.9 F (-15.6 C)
Windchill: -7 F (-22 C):2
Dew Point: -2.9 F (-19.4 C)
Relative Humidity: 72%
Pressure (altimeter): 30.3 in. Hg (1026 hPa)
ob: KBKE 301053Z AUTO 18005KT 10SM CLR M16/M19 A3030 RMK AO2 SLP317 T11561194
cycle: 11

Station Type Date Time Source
KBKE TAF 2023/01/30 06:22 UTC NOAA

TAF KBKE 300520Z 3006/3106 VRB06KT P6SM SKC

Example: see airport list